Wetterdaten: aktuell Freitag, 22.09.2017 02:30
Datum Zeit Temp. A. Feuchte A. Luftdruck Regen Wind Richtung Richtung Taupunkt Windchill Windben Empfang
22.09.2017 02:30 10,4 C 94 % 1019,8 hPa 0,0 l/m 0,0 km/h (0 Bft) SO 144 9,5 C 10,4 C 0,0 km/h (0 Bft) 99 %
22.09.2017 01:30 10,7 C 94 % 1019,9 hPa 0,0 l/m 0,3 km/h (0 Bft) S-SO 148 9,8 C 10,7 C 1,9 km/h (1 Bft) 100 %
22.09.2017 00:30 11,1 C 93 % 1020,0 hPa 0,0 l/m 0,0 km/h (0 Bft) S-SO 159 10,0 C 11,1 C 0,0 km/h (0 Bft) 99 %
21.09.2017 23:20 11,6 C 92 % 1020,0 hPa 0,0 l/m 0,0 km/h (0 Bft) S-SO 156 10,3 C 11,6 C 0,0 km/h (0 Bft) 100 %
21.09.2017 22:20 12,4 C 90 % 1019,9 hPa 0,0 l/m 0,0 km/h (0 Bft) S-SO 156 10,8 C 12,4 C 0,0 km/h (0 Bft) 99 %
21.09.2017 21:20 13,6 C 86 % 1020,0 hPa 0,0 l/m 0,0 km/h (0 Bft) S-SO 160 11,3 C 13,6 C 0,0 km/h (0 Bft) 99 %
21.09.2017 20:20 15,3 C 82 % 1019,8 hPa 0,0 l/m 0,0 km/h (0 Bft) S 169 12,2 C 15,3 C 0,0 km/h (0 Bft) 98 %
21.09.2017 19:20 17,3 C 74 % 1019,4 hPa 0,0 l/m 0,0 km/h (0 Bft) S 169 12,6 C 17,3 C 0,0 km/h (0 Bft) 99 %
21.09.2017 18:20 17,9 C 69 % 1019,3 hPa 0,0 l/m 0,7 km/h (0 Bft) SO 142 12,1 C 17,9 C 3,7 km/h (1 Bft) 100 %
21.09.2017 17:20 18,3 C 66 % 1019,2 hPa 0,0 l/m 1,5 km/h (1 Bft) S 188 11,8 C 18,3 C 7,5 km/h (2 Bft) 100 %
21.09.2017 16:20 19,4 C 60 % 1019,4 hPa 0,0 l/m 6,4 km/h (2 Bft) S 189 11,4 C 19,4 C 13,1 km/h (3 Bft) 100 %
21.09.2017 15:20 19,4 C 60 % 1019,3 hPa 0,0 l/m 4,8 km/h (1 Bft) S 176 11,4 C 19,4 C 16,9 km/h (3 Bft) 99 %
21.09.2017 14:20 18,5 C 65 % 1019,5 hPa 0,0 l/m 8,2 km/h (2 Bft) S-SW 203 11,8 C 17,7 C 16,9 km/h (3 Bft) 99 %
21.09.2017 13:20 18,7 C 66 % 1020,0 hPa 0,0 l/m 9,9 km/h (2 Bft) W-NW 285 12,2 C 17,2 C 22,5 km/h (4 Bft) 99 %
21.09.2017 12:20 17,9 C 69 % 1020,0 hPa 0,0 l/m 10,4 km/h (2 Bft) SW 231 12,1 C 16,2 C 26,2 km/h (4 Bft) 99 %
21.09.2017 11:20 16,6 C 74 % 1020,5 hPa 0,0 l/m 9,4 km/h (2 Bft) SW 222 11,9 C 15,1 C 20,6 km/h (4 Bft) 99 %
21.09.2017 10:20 14,6 C 82 % 1020,6 hPa 0,0 l/m 6,4 km/h (2 Bft) S 178 11,6 C 14,6 C 13,1 km/h (3 Bft) 99 %
21.09.2017 09:20 12,7 C 89 % 1020,3 hPa 0,0 l/m 5,8 km/h (2 Bft) S-SW 196 10,9 C 12,7 C 13,1 km/h (3 Bft) 99 %
21.09.2017 08:20 11,9 C 91 % 1020,0 hPa 0,0 l/m 5,2 km/h (1 Bft) S-SW 196 10,5 C 11,9 C 11,2 km/h (2 Bft) 97 %
21.09.2017 07:20 11,3 C 92 % 1019,9 hPa 0,0 l/m 3,3 km/h (1 Bft) S-SW 193 10,0 C 11,3 C 9,4 km/h (2 Bft) 98 %
21.09.2017 06:20 11,5 C 92 % 1019,7 hPa 0,0 l/m 1,2 km/h (1 Bft) S 184 10,2 C 11,5 C 5,6 km/h (1 Bft) 99 %
21.09.2017 05:20 11,3 C 91 % 1019,6 hPa 0,0 l/m 0,5 km/h (0 Bft) S-SO 166 9,9 C 11,3 C 7,5 km/h (2 Bft) 100 %
21.09.2017 04:20 11,6 C 90 % 1019,6 hPa 0,0 l/m 3,8 km/h (1 Bft) S 182 10,0 C 11,6 C 9,4 km/h (2 Bft) 100 %
21.09.2017 03:20 12,1 C 88 % 1019,7 hPa 0,0 l/m 3,1 km/h (1 Bft) S 190 10,2 C 12,1 C 9,4 km/h (2 Bft) 99 %
21.09.2017 03:01 12,1 C 89 % 1019,8 hPa 0,0 l/m 3,2 km/h (1 Bft) S-SW 205 10,3 C 12,1 C 9,4 km/h (2 Bft) 99 %
_ Min-Zeit 02:30 15:30 17:20 - 19:00 - - 02:30 02:30 19:00 13:00
Minimum _ 10,4 C 59 % 1019,2 hPa - 0,0 km/h (0 Bft) - - 9,5 C 10,4 C 0,0 km/h (0 Bft) 97 %
_ Max-Zeit 15:30 01:10 09:40 03:01 12:40 - - 19:20 16:20 12:20 03:02
Maximum _ 19,6 C 94 % 1020,6 hPa 0,0 l/m 12,3 km/h
SO (3 Bft)
- - 12,6 C 19,4 C 26,2 km/h
W-SW (4 Bft)
100 %
Durchschnitt _ 14,3 C 82 % 1019,8 hPa #0,0 l/m 3,2 km/h (1 Bft) S - 11,0 C 14,1 C 8,6 km/h (2 Bft) 99 %